Página principal
METAR-TAF:

METAR-TAF

Aeroportos :

Aeroporto Internacional de Mitiga

Trípoli, Líbia

latitude: 32-54N, longitude: 13-17E, altura: 11 m

METAR: em falta

Hora: 21:46 (19:46 UTC)

Previsão

O boletim foi feito há 14 horas e 46 minutos, às 05:00 UTC
Previsão válida de 23 às 06 UTC a 24 às 06 UTC
Vento 10 kt de oeste
Visibilidade: 8000 m
Nuvens dispersasa uma altura de 2300 ft
Nuvens dispersasa uma altura de 7000 ft
Probabilidade 30% :
Temporariamente
de 23 às 06 UTC a 23 às 24 UTC
Visibilidade: 5000 m
Poucas nuvensa uma altura de 2000 ft, Cumulus congestus.
Nuvens fragmentadasa uma altura de 2300 ft
Nuvens fragmentadasa uma altura de 7000 ft
aguaceiros de chuva
Tornando-se
de 23 às 16 UTC a 23 às 18 UTC
Vento 15 kt de oes-noroeste com rajadas de 25 kt

TAF: HLLM 230500Z 2306/2406 27010KT 8000 SCT023 SCT070 PROB30 TEMPO 2306/2324 5000 SHRA FEW020TCU BKN023 BKN070 BECMG 2316/2318 30015G25KT

Observações e previsões do tempo de mais de 4000 aeroportos (mensagens METAR e TAF).

As estações disponíveis são os pontos amarelos e vermelhos sobre o mapa.

Mova o rato sobre o mapa para ver o nome da estação.

Depois clique no ponto para visualizar as observações e previsões meteorológicas.

Para alterar o mapa : clique nos botões verdes com uma cruz preta para aumentar o zoom; no botão verde com uma pitada de zoom; ou nas setas verdes para mapas adjacentes.


METAR-TAF: